Lydia Campbell — WDF4887 — position and weather

sailwx.info

Track history (hours):
 
Tides and Currents Weather Stations Pressure Air Temp Water Temp Dewpoint Dewpoint Depression Visibility Wind Speed Wind Dir Waves Ship Positions

Lydia Campbell

Owner: Canal Barge Company, Inc., Belle Chasse, LA. More information available from US FCC via Universal Licensing System and Coast Guard Vessel Documentation Center.

Last reported at 2017-Aug-31 10:47 UTC. Time now 2017-Sep-21 01:26 UTC.
Position N 38°55' W 090°14'.
Warning: this ship's position is 20 days out of date.

Length 33 m.

Type: Fishing. MMSI: 367456890.

Date/timePositionNaut miles runAvg speedWind from/ knotsBaromVisibWave heightAir tempDewpointWater temp
2017-Aug-31 10:47N 38°55' W 090°14'0 0.0
2017-Aug-31 03:08N 38°55' W 090°14'0 0.0
2017-Aug-31 02:56N 38°55' W 090°14'0 0.0
2017-Aug-31 02:17N 38°55' W 090°14'0 0.0
2017-Aug-31 01:56N 38°55' W 090°14'0 0.0
2017-Aug-31 01:26N 38°55' W 090°14'0 0.1
2017-Aug-30 22:51N 38°55' W 090°15'1 4.1
2017-Aug-30 22:30N 38°55' W 090°17'2 5.0
2017-Aug-30 22:00N 38°56' W 090°20'3 5.2
2017-Aug-30 21:30N 38°57' W 090°22'3 5.3
2017-Aug-30 21:00N 38°58' W 090°26'2 4.7
2017-Aug-30 20:30N 38°58' W 090°29'2 4.1
2017-Aug-30 20:00N 38°57' W 090°31'  
Track history (hours):
 
Tides and Currents Weather Stations Pressure Air Temp Water Temp Dewpoint Dewpoint Depression Visibility Wind Speed Wind Dir Waves Ship Positions

Lydia Campbell

Owner: Canal Barge Company, Inc., Belle Chasse, LA. More information available from US FCC via Universal Licensing System and Coast Guard Vessel Documentation Center.

Last reported at 2017-Aug-31 10:47 UTC. Time now 2017-Sep-21 01:26 UTC.
Position N 38°55' W 090°14'.
Warning: this ship's position is 20 days out of date.

Length 33 m.

Type: Fishing. MMSI: 367456890.

Date/timePositionNaut miles runAvg speedWind from/ knotsBaromVisibWave heightAir tempDewpointWater temp
2017-Aug-31 10:47N 38°55' W 090°14'0 0.0
2017-Aug-31 03:08N 38°55' W 090°14'0 0.0
2017-Aug-31 02:56N 38°55' W 090°14'0 0.0
2017-Aug-31 02:17N 38°55' W 090°14'0 0.0
2017-Aug-31 01:56N 38°55' W 090°14'0 0.0
2017-Aug-31 01:26N 38°55' W 090°14'0 0.1
2017-Aug-30 22:51N 38°55' W 090°15'1 4.1
2017-Aug-30 22:30N 38°55' W 090°17'2 5.0
2017-Aug-30 22:00N 38°56' W 090°20'3 5.2
2017-Aug-30 21:30N 38°57' W 090°22'3 5.3
2017-Aug-30 21:00N 38°58' W 090°26'2 4.7
2017-Aug-30 20:30N 38°58' W 090°29'2 4.1
2017-Aug-30 20:00N 38°57' W 090°31'  

Dump ship's entire track history